Sagamore, MA

2:28 PM EDT on March 30, 2015 (GMT -0400)
Plymouth Municipal | | Change Station
CLOSE
Current Station
Airport
Location: Plymouth,
Elevation: 148 ft
Nearby Weather Stations

Elev 148 ft 41.91 °N, 70.73 °W | Updated 36 minutes ago

Overcast
Overcast
40 °F
Feels Like 32 °F
N
14
Wind Variable Wind from SSW
Gusts 24 mph

Today
High -- | Low -- °F
--% Chance of Precip.
Yesterday
High -- | Low -- °F
Precip. -- in
6:28 AM 7:05 PM
Waxing Gibbous, 81% visible
Pressure 29.78 in
Visibility 10.0 miles
Clouds Overcast 4700 ft
Windchill 32 °F
Dew Point 29 °F
Humidity 65%
Rainfall 0.00 in
Snow Depth Not available.
UV 2 out of 12
Pollen 2.30 out of 12
Air Quality Not available.
Flu Activity Not available.
METAR KPYM 301752Z AUTO 21012G21KT 10SM -RA OVC047 04/M02 A2978 RMK AO2 RAB19E31B52 SLP085 P0000 60000 T00441017 10044 20017 58028

More Conditions Fewer Conditions

Pressure 29.78 in
Visibility 10.0 miles
Clouds Overcast 4700 ft
Windchill 32 °F
Dew Point 29 °F
Humidity 65%
Rainfall 0.00 in
Snow Depth Not available.
UV 2 out of 12
Pollen 2.30 out of 12
Air Quality Not available.
Flu Activity Not available.
METAR KPYM 301752Z AUTO 21012G21KT 10SM -RA OVC047 04/M02 A2978 RMK AO2 RAB19E31B52 SLP085 P0000 60000 T00441017 10044 20017 58028

More Conditions Fewer Conditions

10-Day Weather Forecast

Almanac

Astronomy

Mar. 30, 2015 Rise Set
Actual Time
Civil Twilight
Nautical Twilight
Astronomical Twilight
Moon
Length of Visible Light
Length of Day
Tomorrow will be .
, % of the Moon is Illuminated

Today's Extremes

State Highs State Lows

Community

WunderPhotos

Upload Photos

1,809,561 photos uploaded!

WunderBlogs® & News

Nearby

Air Quality

  Air Quality AQ Index Pollutant
Not available.

Snow Depth

Station Depth Elevation

Earthquake Activity

City Distance Mag. Time & Date
Minimum magnitude displayed is 2.5.

Coastal Water Temperatures

Place Temperature

Stations

Nearby Weather Stations

Station Location Temp. Windchill Dew Point Humidity Wind Precip. Elev Updated Type